sensor_id;sensor_type;location;lat;lon;timestamp;P1;durP1;ratioP1;P2;durP2;ratioP2
39930;SDS011;26635;-35.248;149.138;2023-02-28T00:01:42;2.58;;;1.10;;
39930;SDS011;26635;-35.248;149.138;2023-02-28T00:04:14;4.57;;;1.08;;
39930;SDS011;26635;-35.248;149.138;2023-02-28T00:06:45;2.17;;;0.90;;
39930;SDS011;26635;-35.248;149.138;2023-02-28T00:09:15;3.90;;;1.00;;
39930;SDS011;26635;-35.248;149.138;2023-02-28T00:11:46;2.33;;;0.95;;
39930;SDS011;26635;-35.248;149.138;2023-02-28T00:14:17;2.83;;;1.02;;
39930;SDS011;26635;-35.248;149.138;2023-02-28T00:16:49;3.00;;;1.30;;
39930;SDS011;26635;-35.248;149.138;2023-02-28T00:19:19;3.45;;;1.20;;
39930;SDS011;26635;-35.248;149.138;2023-02-28T00:21:51;1.60;;;1.00;;
39930;SDS011;26635;-35.248;149.138;2023-02-28T00:24:23;2.35;;;0.88;;
39930;SDS011;26635;-35.248;149.138;2023-02-28T00:26:54;4.05;;;1.08;;
39930;SDS011;26635;-35.248;149.138;2023-02-28T00:29:25;1.65;;;1.00;;
39930;SDS011;26635;-35.248;149.138;2023-02-28T00:32:00;2.38;;;1.27;;
39930;SDS011;26635;-35.248;149.138;2023-02-28T00:34:31;1.75;;;1.10;;
39930;SDS011;26635;-35.248;149.138;2023-02-28T00:37:09;1.15;;;0.82;;
39930;SDS011;26635;-35.248;149.138;2023-02-28T00:39:42;1.58;;;0.75;;
39930;SDS011;26635;-35.248;149.138;2023-02-28T00:42:15;1.60;;;1.00;;
39930;SDS011;26635;-35.248;149.138;2023-02-28T00:44:46;3.10;;;1.40;;
39930;SDS011;26635;-35.248;149.138;2023-02-28T00:47:17;1.90;;;1.20;;
39930;SDS011;26635;-35.248;149.138;2023-02-28T00:49:49;1.23;;;0.80;;
39930;SDS011;26635;-35.248;149.138;2023-02-28T00:52:20;1.52;;;0.90;;
39930;SDS011;26635;-35.248;149.138;2023-02-28T00:54:52;3.35;;;1.40;;
39930;SDS011;26635;-35.248;149.138;2023-02-28T00:57:22;1.58;;;1.10;;
39930;SDS011;26635;-35.248;149.138;2023-02-28T00:59:53;4.05;;;0.88;;
39930;SDS011;26635;-35.248;149.138;2023-02-28T01:02:25;2.45;;;1.02;;
39930;SDS011;26635;-35.248;149.138;2023-02-28T01:04:56;1.77;;;0.90;;
39930;SDS011;26635;-35.248;149.138;2023-02-28T01:07:27;1.75;;;0.93;;
39930;SDS011;26635;-35.248;149.138;2023-02-28T01:09:58;1.65;;;1.08;;
39930;SDS011;26635;-35.248;149.138;2023-02-28T01:12:30;3.15;;;0.80;;
39930;SDS011;26635;-35.248;149.138;2023-02-28T01:15:03;3.50;;;1.10;;
39930;SDS011;26635;-35.248;149.138;2023-02-28T01:17:35;3.30;;;1.20;;
39930;SDS011;26635;-35.248;149.138;2023-02-28T01:20:06;1.50;;;0.77;;
39930;SDS011;26635;-35.248;149.138;2023-02-28T01:22:39;1.95;;;1.05;;
39930;SDS011;26635;-35.248;149.138;2023-02-28T01:25:11;3.00;;;1.33;;
39930;SDS011;26635;-35.248;149.138;2023-02-28T01:27:42;1.45;;;0.85;;
39930;SDS011;26635;-35.248;149.138;2023-02-28T01:30:13;2.00;;;0.80;;
39930;SDS011;26635;-35.248;149.138;2023-02-28T01:32:44;2.20;;;1.13;;
39930;SDS011;26635;-35.248;149.138;2023-02-28T01:35:14;2.72;;;1.10;;
39930;SDS011;26635;-35.248;149.138;2023-02-28T01:37:45;2.38;;;1.00;;
39930;SDS011;26635;-35.248;149.138;2023-02-28T01:40:16;2.83;;;0.85;;
39930;SDS011;26635;-35.248;149.138;2023-02-28T01:42:47;2.83;;;0.93;;
39930;SDS011;26635;-35.248;149.138;2023-02-28T01:48:05;1.60;;;0.93;;
39930;SDS011;26635;-35.248;149.138;2023-02-28T01:50:41;2.20;;;0.73;;
39930;SDS011;26635;-35.248;149.138;2023-02-28T01:53:16;2.28;;;0.90;;
39930;SDS011;26635;-35.248;149.138;2023-02-28T01:55:53;4.00;;;1.52;;
39930;SDS011;26635;-35.248;149.138;2023-02-28T01:58:25;1.85;;;1.27;;
39930;SDS011;26635;-35.248;149.138;2023-02-28T02:00:57;2.58;;;0.90;;
39930;SDS011;26635;-35.248;149.138;2023-02-28T02:03:28;2.65;;;0.90;;
39930;SDS011;26635;-35.248;149.138;2023-02-28T02:06:00;2.50;;;0.90;;
39930;SDS011;26635;-35.248;149.138;2023-02-28T02:08:32;1.50;;;0.75;;
39930;SDS011;26635;-35.248;149.138;2023-02-28T02:11:03;3.63;;;1.08;;
39930;SDS011;26635;-35.248;149.138;2023-02-28T02:44:02;2.55;;;0.88;;
39930;SDS011;26635;-35.248;149.138;2023-02-28T02:46:42;2.50;;;0.85;;
39930;SDS011;26635;-35.248;149.138;2023-02-28T02:49:24;2.63;;;0.82;;
39930;SDS011;26635;-35.248;149.138;2023-02-28T02:52:00;1.02;;;0.85;;
39930;SDS011;26635;-35.248;149.138;2023-02-28T02:54:38;2.58;;;1.30;;
39930;SDS011;26635;-35.248;149.138;2023-02-28T02:57:15;1.70;;;0.80;;
39930;SDS011;26635;-35.248;149.138;2023-02-28T02:59:54;2.30;;;0.68;;
39930;SDS011;26635;-35.248;149.138;2023-02-28T03:02:26;3.03;;;1.33;;
39930;SDS011;26635;-35.248;149.138;2023-02-28T03:05:04;1.38;;;0.88;;
39930;SDS011;26635;-35.248;149.138;2023-02-28T03:07:56;1.55;;;0.80;;
39930;SDS011;26635;-35.248;149.138;2023-02-28T03:10:36;2.58;;;1.17;;
39930;SDS011;26635;-35.248;149.138;2023-02-28T03:18:50;2.17;;;0.80;;
39930;SDS011;26635;-35.248;149.138;2023-02-28T03:21:51;3.28;;;1.55;;
39930;SDS011;26635;-35.248;149.138;2023-02-28T03:27:17;1.73;;;1.25;;
39930;SDS011;26635;-35.248;149.138;2023-02-28T03:30:01;1.52;;;1.05;;
39930;SDS011;26635;-35.248;149.138;2023-02-28T03:32:55;2.22;;;1.00;;
39930;SDS011;26635;-35.248;149.138;2023-02-28T03:36:02;2.80;;;1.02;;
39930;SDS011;26635;-35.248;149.138;2023-02-28T03:38:41;2.00;;;0.90;;
39930;SDS011;26635;-35.248;149.138;2023-02-28T03:41:32;1.77;;;1.10;;
39930;SDS011;26635;-35.248;149.138;2023-02-28T03:44:47;3.13;;;0.80;;
39930;SDS011;26635;-35.248;149.138;2023-02-28T03:48:08;7.55;;;1.52;;
39930;SDS011;26635;-35.248;149.138;2023-02-28T03:50:57;3.95;;;0.90;;
39930;SDS011;26635;-35.248;149.138;2023-02-28T03:56:18;1.23;;;0.80;;
39930;SDS011;26635;-35.248;149.138;2023-02-28T04:01:48;2.28;;;0.80;;
39930;SDS011;26635;-35.248;149.138;2023-02-28T04:04:20;1.85;;;0.80;;
39930;SDS011;26635;-35.248;149.138;2023-02-28T04:06:52;4.15;;;0.80;;
39930;SDS011;26635;-35.248;149.138;2023-02-28T04:09:31;1.73;;;0.77;;
39930;SDS011;26635;-35.248;149.138;2023-02-28T04:12:04;3.45;;;1.00;;
39930;SDS011;26635;-35.248;149.138;2023-02-28T04:14:36;2.50;;;0.95;;
39930;SDS011;26635;-35.248;149.138;2023-02-28T04:17:07;2.55;;;1.25;;
39930;SDS011;26635;-35.248;149.138;2023-02-28T04:19:37;1.95;;;0.90;;
39930;SDS011;26635;-35.248;149.138;2023-02-28T04:22:09;1.33;;;1.02;;
39930;SDS011;26635;-35.248;149.138;2023-02-28T04:24:40;2.00;;;1.20;;
39930;SDS011;26635;-35.248;149.138;2023-02-28T04:27:11;3.53;;;0.98;;
39930;SDS011;26635;-35.248;149.138;2023-02-28T04:29:45;2.65;;;0.80;;
39930;SDS011;26635;-35.248;149.138;2023-02-28T04:32:15;1.88;;;1.00;;
39930;SDS011;26635;-35.248;149.138;2023-02-28T04:34:46;0.90;;;0.70;;
39930;SDS011;26635;-35.248;149.138;2023-02-28T04:37:18;1.17;;;0.98;;
39930;SDS011;26635;-35.248;149.138;2023-02-28T04:39:49;2.22;;;1.00;;
39930;SDS011;26635;-35.248;149.138;2023-02-28T04:42:19;1.23;;;1.02;;
39930;SDS011;26635;-35.248;149.138;2023-02-28T04:44:50;2.60;;;1.00;;
39930;SDS011;26635;-35.248;149.138;2023-02-28T04:47:21;2.08;;;0.88;;
39930;SDS011;26635;-35.248;149.138;2023-02-28T04:49:53;2.85;;;0.90;;
39930;SDS011;26635;-35.248;149.138;2023-02-28T04:52:24;2.50;;;1.27;;
39930;SDS011;26635;-35.248;149.138;2023-02-28T04:54:57;1.42;;;0.80;;
39930;SDS011;26635;-35.248;149.138;2023-02-28T04:57:29;1.40;;;0.80;;
39930;SDS011;26635;-35.248;149.138;2023-02-28T04:59:59;1.77;;;1.02;;
39930;SDS011;26635;-35.248;149.138;2023-02-28T05:02:35;1.48;;;1.02;;
39930;SDS011;26635;-35.248;149.138;2023-02-28T05:05:06;1.42;;;0.85;;
39930;SDS011;26635;-35.248;149.138;2023-02-28T05:07:37;1.70;;;0.80;;
39930;SDS011;26635;-35.248;149.138;2023-02-28T05:10:09;4.00;;;1.00;;
39930;SDS011;26635;-35.248;149.138;2023-02-28T05:12:41;2.15;;;1.00;;
39930;SDS011;26635;-35.248;149.138;2023-02-28T05:15:13;2.17;;;1.00;;
39930;SDS011;26635;-35.248;149.138;2023-02-28T05:17:45;1.25;;;0.98;;
39930;SDS011;26635;-35.248;149.138;2023-02-28T05:20:17;1.13;;;1.00;;
39930;SDS011;26635;-35.248;149.138;2023-02-28T05:22:49;2.53;;;1.40;;
39930;SDS011;26635;-35.248;149.138;2023-02-28T05:25:21;3.72;;;1.30;;
39930;SDS011;26635;-35.248;149.138;2023-02-28T05:27:53;1.77;;;1.10;;
39930;SDS011;26635;-35.248;149.138;2023-02-28T05:30:24;4.30;;;1.88;;
39930;SDS011;26635;-35.248;149.138;2023-02-28T05:32:55;4.25;;;1.25;;
39930;SDS011;26635;-35.248;149.138;2023-02-28T05:35:26;2.72;;;1.10;;
39930;SDS011;26635;-35.248;149.138;2023-02-28T05:37:57;3.00;;;1.00;;
39930;SDS011;26635;-35.248;149.138;2023-02-28T05:40:29;3.03;;;1.63;;
39930;SDS011;26635;-35.248;149.138;2023-02-28T05:42:59;1.70;;;0.98;;
39930;SDS011;26635;-35.248;149.138;2023-02-28T05:45:31;2.97;;;1.27;;
39930;SDS011;26635;-35.248;149.138;2023-02-28T05:48:02;1.92;;;0.90;;
39930;SDS011;26635;-35.248;149.138;2023-02-28T05:50:34;2.00;;;1.13;;
39930;SDS011;26635;-35.248;149.138;2023-02-28T05:53:04;2.50;;;1.30;;
39930;SDS011;26635;-35.248;149.138;2023-02-28T05:55:34;1.40;;;1.10;;
39930;SDS011;26635;-35.248;149.138;2023-02-28T05:58:06;2.22;;;1.05;;
39930;SDS011;26635;-35.248;149.138;2023-02-28T06:00:37;4.32;;;1.33;;
39930;SDS011;26635;-35.248;149.138;2023-02-28T06:03:08;3.55;;;1.50;;
39930;SDS011;26635;-35.248;149.138;2023-02-28T06:05:40;2.45;;;1.20;;
39930;SDS011;26635;-35.248;149.138;2023-02-28T06:08:12;2.42;;;1.17;;
39930;SDS011;26635;-35.248;149.138;2023-02-28T06:10:50;2.15;;;1.30;;
39930;SDS011;26635;-35.248;149.138;2023-02-28T06:13:24;2.38;;;1.65;;
39930;SDS011;26635;-35.248;149.138;2023-02-28T06:15:56;2.55;;;1.38;;
39930;SDS011;26635;-35.248;149.138;2023-02-28T06:18:31;3.80;;;1.45;;
39930;SDS011;26635;-35.248;149.138;2023-02-28T06:21:07;1.75;;;1.20;;
39930;SDS011;26635;-35.248;149.138;2023-02-28T06:23:40;2.67;;;1.70;;
39930;SDS011;26635;-35.248;149.138;2023-02-28T06:26:11;3.70;;;2.08;;
39930;SDS011;26635;-35.248;149.138;2023-02-28T06:28:42;2.65;;;1.63;;
39930;SDS011;26635;-35.248;149.138;2023-02-28T06:31:15;3.85;;;2.42;;
39930;SDS011;26635;-35.248;149.138;2023-02-28T06:33:47;4.47;;;1.45;;
39930;SDS011;26635;-35.248;149.138;2023-02-28T06:36:18;2.45;;;1.45;;
39930;SDS011;26635;-35.248;149.138;2023-02-28T06:38:48;2.65;;;1.48;;
39930;SDS011;26635;-35.248;149.138;2023-02-28T06:41:23;4.05;;;1.58;;
39930;SDS011;26635;-35.248;149.138;2023-02-28T06:44:04;3.30;;;1.42;;
39930;SDS011;26635;-35.248;149.138;2023-02-28T06:46:41;7.90;;;1.83;;
39930;SDS011;26635;-35.248;149.138;2023-02-28T06:49:14;3.33;;;1.65;;
39930;SDS011;26635;-35.248;149.138;2023-02-28T06:51:56;2.40;;;1.73;;
39930;SDS011;26635;-35.248;149.138;2023-02-28T06:54:27;2.63;;;1.38;;
39930;SDS011;26635;-35.248;149.138;2023-02-28T06:57:00;1.98;;;1.50;;
39930;SDS011;26635;-35.248;149.138;2023-02-28T06:59:30;2.25;;;1.30;;
39930;SDS011;26635;-35.248;149.138;2023-02-28T07:02:01;2.63;;;1.55;;
39930;SDS011;26635;-35.248;149.138;2023-02-28T07:04:34;2.47;;;1.40;;
39930;SDS011;26635;-35.248;149.138;2023-02-28T07:07:04;7.65;;;2.42;;
39930;SDS011;26635;-35.248;149.138;2023-02-28T07:09:35;2.72;;;1.85;;
39930;SDS011;26635;-35.248;149.138;2023-02-28T07:12:05;1.80;;;1.30;;
39930;SDS011;26635;-35.248;149.138;2023-02-28T07:14:36;1.98;;;1.40;;
39930;SDS011;26635;-35.248;149.138;2023-02-28T07:17:07;3.42;;;1.58;;
39930;SDS011;26635;-35.248;149.138;2023-02-28T07:19:40;2.75;;;1.33;;
39930;SDS011;26635;-35.248;149.138;2023-02-28T07:22:10;2.15;;;1.17;;
39930;SDS011;26635;-35.248;149.138;2023-02-28T07:24:41;2.20;;;1.25;;
39930;SDS011;26635;-35.248;149.138;2023-02-28T07:27:14;2.72;;;1.73;;
39930;SDS011;26635;-35.248;149.138;2023-02-28T07:29:52;2.00;;;1.30;;
39930;SDS011;26635;-35.248;149.138;2023-02-28T07:32:24;3.05;;;1.23;;
39930;SDS011;26635;-35.248;149.138;2023-02-28T07:34:54;1.98;;;1.38;;
39930;SDS011;26635;-35.248;149.138;2023-02-28T07:37:25;2.15;;;1.30;;
39930;SDS011;26635;-35.248;149.138;2023-02-28T07:39:55;3.17;;;1.80;;
39930;SDS011;26635;-35.248;149.138;2023-02-28T07:42:26;2.25;;;1.67;;
39930;SDS011;26635;-35.248;149.138;2023-02-28T07:44:58;2.10;;;1.10;;
39930;SDS011;26635;-35.248;149.138;2023-02-28T07:47:29;2.88;;;1.52;;
39930;SDS011;26635;-35.248;149.138;2023-02-28T07:50:01;3.22;;;1.60;;
39930;SDS011;26635;-35.248;149.138;2023-02-28T07:52:32;3.15;;;1.52;;
39930;SDS011;26635;-35.248;149.138;2023-02-28T07:55:02;6.90;;;1.35;;
39930;SDS011;26635;-35.248;149.138;2023-02-28T07:57:33;3.28;;;1.23;;
39930;SDS011;26635;-35.248;149.138;2023-02-28T08:00:04;2.22;;;1.20;;
39930;SDS011;26635;-35.248;149.138;2023-02-28T08:02:38;3.42;;;1.30;;
39930;SDS011;26635;-35.248;149.138;2023-02-28T08:05:08;1.27;;;0.80;;
39930;SDS011;26635;-35.248;149.138;2023-02-28T08:07:39;1.40;;;1.10;;
39930;SDS011;26635;-35.248;149.138;2023-02-28T08:10:10;1.48;;;1.00;;
39930;SDS011;26635;-35.248;149.138;2023-02-28T08:12:42;1.77;;;1.15;;
39930;SDS011;26635;-35.248;149.138;2023-02-28T08:15:13;4.22;;;1.35;;
39930;SDS011;26635;-35.248;149.138;2023-02-28T08:17:43;3.13;;;1.48;;
39930;SDS011;26635;-35.248;149.138;2023-02-28T08:20:13;2.33;;;1.50;;
39930;SDS011;26635;-35.248;149.138;2023-02-28T08:22:44;2.10;;;1.38;;
39930;SDS011;26635;-35.248;149.138;2023-02-28T08:25:15;2.78;;;1.23;;
39930;SDS011;26635;-35.248;149.138;2023-02-28T08:27:47;3.22;;;1.38;;
39930;SDS011;26635;-35.248;149.138;2023-02-28T08:30:21;1.63;;;0.88;;
39930;SDS011;26635;-35.248;149.138;2023-02-28T08:32:53;2.95;;;1.30;;
39930;SDS011;26635;-35.248;149.138;2023-02-28T08:35:25;3.53;;;1.60;;
39930;SDS011;26635;-35.248;149.138;2023-02-28T08:37:56;3.42;;;1.73;;
39930;SDS011;26635;-35.248;149.138;2023-02-28T08:40:29;4.15;;;1.63;;
39930;SDS011;26635;-35.248;149.138;2023-02-28T08:43:01;2.75;;;1.60;;
39930;SDS011;26635;-35.248;149.138;2023-02-28T08:45:32;3.17;;;1.65;;
39930;SDS011;26635;-35.248;149.138;2023-02-28T08:48:02;2.67;;;1.65;;
39930;SDS011;26635;-35.248;149.138;2023-02-28T08:50:33;4.43;;;1.20;;
39930;SDS011;26635;-35.248;149.138;2023-02-28T08:53:03;5.82;;;1.55;;
39930;SDS011;26635;-35.248;149.138;2023-02-28T08:55:34;4.30;;;1.60;;
39930;SDS011;26635;-35.248;149.138;2023-02-28T08:58:04;3.35;;;1.60;;
39930;SDS011;26635;-35.248;149.138;2023-02-28T09:00:35;6.35;;;1.70;;
39930;SDS011;26635;-35.248;149.138;2023-02-28T09:03:08;5.05;;;1.45;;
39930;SDS011;26635;-35.248;149.138;2023-02-28T09:05:39;4.53;;;1.10;;
39930;SDS011;26635;-35.248;149.138;2023-02-28T09:08:09;2.42;;;1.08;;
39930;SDS011;26635;-35.248;149.138;2023-02-28T09:10:41;5.38;;;1.40;;
39930;SDS011;26635;-35.248;149.138;2023-02-28T09:13:12;3.20;;;1.65;;
39930;SDS011;26635;-35.248;149.138;2023-02-28T09:15:43;3.00;;;1.20;;
39930;SDS011;26635;-35.248;149.138;2023-02-28T09:18:15;3.28;;;1.05;;
39930;SDS011;26635;-35.248;149.138;2023-02-28T09:20:45;5.00;;;1.40;;
39930;SDS011;26635;-35.248;149.138;2023-02-28T09:23:17;4.28;;;1.77;;
39930;SDS011;26635;-35.248;149.138;2023-02-28T09:25:49;2.42;;;1.40;;
39930;SDS011;26635;-35.248;149.138;2023-02-28T09:28:22;2.33;;;1.50;;
39930;SDS011;26635;-35.248;149.138;2023-02-28T09:30:53;5.10;;;2.22;;
39930;SDS011;26635;-35.248;149.138;2023-02-28T09:33:26;2.35;;;1.65;;
39930;SDS011;26635;-35.248;149.138;2023-02-28T09:35:58;2.72;;;1.80;;
39930;SDS011;26635;-35.248;149.138;2023-02-28T09:38:33;2.42;;;1.45;;
39930;SDS011;26635;-35.248;149.138;2023-02-28T09:41:10;3.88;;;1.40;;
39930;SDS011;26635;-35.248;149.138;2023-02-28T09:43:45;3.53;;;1.30;;
39930;SDS011;26635;-35.248;149.138;2023-02-28T09:49:12;3.67;;;1.65;;
39930;SDS011;26635;-35.248;149.138;2023-02-28T09:51:51;5.05;;;2.00;;
39930;SDS011;26635;-35.248;149.138;2023-02-28T09:54:38;4.15;;;2.30;;
39930;SDS011;26635;-35.248;149.138;2023-02-28T09:57:55;20.95;;;2.92;;
39930;SDS011;26635;-35.248;149.138;2023-02-28T10:00:24;4.43;;;1.40;;
39930;SDS011;26635;-35.248;149.138;2023-02-28T10:06:17;5.25;;;2.15;;
39930;SDS011;26635;-35.248;149.138;2023-02-28T10:09:04;4.70;;;1.60;;
39930;SDS011;26635;-35.248;149.138;2023-02-28T10:11:59;8.45;;;2.28;;
39930;SDS011;26635;-35.248;149.138;2023-02-28T10:14:34;5.72;;;1.65;;
39930;SDS011;26635;-35.248;149.138;2023-02-28T10:17:11;3.13;;;1.65;;
39930;SDS011;26635;-35.248;149.138;2023-02-28T10:22:34;3.40;;;1.70;;
39930;SDS011;26635;-35.248;149.138;2023-02-28T10:25:28;5.85;;;2.75;;
39930;SDS011;26635;-35.248;149.138;2023-02-28T10:28:10;4.65;;;1.88;;
39930;SDS011;26635;-35.248;149.138;2023-02-28T10:30:51;9.10;;;2.53;;
39930;SDS011;26635;-35.248;149.138;2023-02-28T10:33:24;6.43;;;1.98;;
39930;SDS011;26635;-35.248;149.138;2023-02-28T10:36:01;5.13;;;2.60;;
39930;SDS011;26635;-35.248;149.138;2023-02-28T10:38:38;5.22;;;2.38;;
39930;SDS011;26635;-35.248;149.138;2023-02-28T10:41:12;5.68;;;2.38;;
39930;SDS011;26635;-35.248;149.138;2023-02-28T10:43:45;4.10;;;2.15;;
39930;SDS011;26635;-35.248;149.138;2023-02-28T10:46:18;5.72;;;2.78;;
39930;SDS011;26635;-35.248;149.138;2023-02-28T10:49:01;5.80;;;2.42;;
39930;SDS011;26635;-35.248;149.138;2023-02-28T10:51:42;4.22;;;2.45;;
39930;SDS011;26635;-35.248;149.138;2023-02-28T10:54:24;5.95;;;2.80;;
39930;SDS011;26635;-35.248;149.138;2023-02-28T10:57:21;5.35;;;2.70;;
39930;SDS011;26635;-35.248;149.138;2023-02-28T11:00:07;6.28;;;3.15;;
39930;SDS011;26635;-35.248;149.138;2023-02-28T11:02:51;5.13;;;3.03;;
39930;SDS011;26635;-35.248;149.138;2023-02-28T11:05:29;5.20;;;2.95;;
39930;SDS011;26635;-35.248;149.138;2023-02-28T11:08:15;6.35;;;3.45;;
39930;SDS011;26635;-35.248;149.138;2023-02-28T11:10:55;8.10;;;3.20;;
39930;SDS011;26635;-35.248;149.138;2023-02-28T11:13:31;6.68;;;3.75;;
39930;SDS011;26635;-35.248;149.138;2023-02-28T11:16:04;11.48;;;3.47;;
39930;SDS011;26635;-35.248;149.138;2023-02-28T11:18:41;6.60;;;3.50;;
39930;SDS011;26635;-35.248;149.138;2023-02-28T11:21:16;5.22;;;3.45;;
39930;SDS011;26635;-35.248;149.138;2023-02-28T11:23:54;7.13;;;3.63;;
39930;SDS011;26635;-35.248;149.138;2023-02-28T11:26:45;6.82;;;3.95;;
39930;SDS011;26635;-35.248;149.138;2023-02-28T11:29:27;10.02;;;4.50;;
39930;SDS011;26635;-35.248;149.138;2023-02-28T11:32:01;8.10;;;4.20;;
39930;SDS011;26635;-35.248;149.138;2023-02-28T11:34:33;8.13;;;3.83;;
39930;SDS011;26635;-35.248;149.138;2023-02-28T11:37:05;7.18;;;4.28;;
39930;SDS011;26635;-35.248;149.138;2023-02-28T11:39:52;6.75;;;3.70;;
39930;SDS011;26635;-35.248;149.138;2023-02-28T11:42:42;6.47;;;3.90;;
39930;SDS011;26635;-35.248;149.138;2023-02-28T11:56:41;4.78;;;3.10;;
39930;SDS011;26635;-35.248;149.138;2023-02-28T12:13:38;7.82;;;3.83;;
39930;SDS011;26635;-35.248;149.138;2023-02-28T12:16:33;6.45;;;3.30;;
39930;SDS011;26635;-35.248;149.138;2023-02-28T12:19:23;7.15;;;3.50;;
39930;SDS011;26635;-35.248;149.138;2023-02-28T12:27:37;8.50;;;3.80;;
39930;SDS011;26635;-35.248;149.138;2023-02-28T12:30:19;6.15;;;3.58;;
39930;SDS011;26635;-35.248;149.138;2023-02-28T12:33:09;5.75;;;3.35;;
39930;SDS011;26635;-35.248;149.138;2023-02-28T12:39:08;7.28;;;4.05;;
39930;SDS011;26635;-35.248;149.138;2023-02-28T12:47:15;7.43;;;3.80;;
39930;SDS011;26635;-35.248;149.138;2023-02-28T12:52:33;7.00;;;3.67;;
39930;SDS011;26635;-35.248;149.138;2023-02-28T12:58:05;4.57;;;3.47;;
39930;SDS011;26635;-35.248;149.138;2023-02-28T13:01:10;5.82;;;3.03;;
39930;SDS011;26635;-35.248;149.138;2023-02-28T13:03:45;7.57;;;3.85;;
39930;SDS011;26635;-35.248;149.138;2023-02-28T13:06:50;10.65;;;4.95;;
39930;SDS011;26635;-35.248;149.138;2023-02-28T13:09:54;7.50;;;4.15;;
39930;SDS011;26635;-35.248;149.138;2023-02-28T13:12:27;8.55;;;3.97;;
39930;SDS011;26635;-35.248;149.138;2023-02-28T13:15:16;6.72;;;3.20;;
39930;SDS011;26635;-35.248;149.138;2023-02-28T13:17:59;6.85;;;4.40;;
39930;SDS011;26635;-35.248;149.138;2023-02-28T13:20:36;8.27;;;4.03;;
39930;SDS011;26635;-35.248;149.138;2023-02-28T13:26:20;6.57;;;3.40;;
39930;SDS011;26635;-35.248;149.138;2023-02-28T13:31:31;7.00;;;4.10;;
39930;SDS011;26635;-35.248;149.138;2023-02-28T13:34:12;9.15;;;4.55;;
39930;SDS011;26635;-35.248;149.138;2023-02-28T13:36:48;6.95;;;4.13;;
39930;SDS011;26635;-35.248;149.138;2023-02-28T13:42:53;7.10;;;4.68;;
39930;SDS011;26635;-35.248;149.138;2023-02-28T13:47:43;6.03;;;3.60;;
39930;SDS011;26635;-35.248;149.138;2023-02-28T13:59:12;5.82;;;4.20;;
39930;SDS011;26635;-35.248;149.138;2023-02-28T14:02:53;7.30;;;3.90;;
39930;SDS011;26635;-35.248;149.138;2023-02-28T14:05:19;5.10;;;3.30;;
39930;SDS011;26635;-35.248;149.138;2023-02-28T14:07:58;6.50;;;4.10;;
39930;SDS011;26635;-35.248;149.138;2023-02-28T14:10:41;7.10;;;4.18;;
39930;SDS011;26635;-35.248;149.138;2023-02-28T14:16:02;6.68;;;4.35;;
39930;SDS011;26635;-35.248;149.138;2023-02-28T14:18:36;9.32;;;3.80;;
39930;SDS011;26635;-35.248;149.138;2023-02-28T14:21:24;7.95;;;4.63;;
39930;SDS011;26635;-35.248;149.138;2023-02-28T14:32:31;5.97;;;3.27;;
39930;SDS011;26635;-35.248;149.138;2023-02-28T14:38:11;5.95;;;3.78;;
39930;SDS011;26635;-35.248;149.138;2023-02-28T14:40:58;8.65;;;4.05;;
39930;SDS011;26635;-35.248;149.138;2023-02-28T14:43:33;10.02;;;4.25;;
39930;SDS011;26635;-35.248;149.138;2023-02-28T14:46:04;6.85;;;3.65;;
39930;SDS011;26635;-35.248;149.138;2023-02-28T14:48:37;6.90;;;3.85;;
39930;SDS011;26635;-35.248;149.138;2023-02-28T14:51:10;5.75;;;3.78;;
39930;SDS011;26635;-35.248;149.138;2023-02-28T14:53:43;7.25;;;3.40;;
39930;SDS011;26635;-35.248;149.138;2023-02-28T14:56:24;5.70;;;3.90;;
39930;SDS011;26635;-35.248;149.138;2023-02-28T15:05:01;6.57;;;4.18;;
39930;SDS011;26635;-35.248;149.138;2023-02-28T15:07:49;7.78;;;3.80;;
39930;SDS011;26635;-35.248;149.138;2023-02-28T15:10:59;7.28;;;4.13;;
39930;SDS011;26635;-35.248;149.138;2023-02-28T15:16:20;5.63;;;3.35;;
39930;SDS011;26635;-35.248;149.138;2023-02-28T15:19:40;8.82;;;4.57;;
39930;SDS011;26635;-35.248;149.138;2023-02-28T15:22:12;8.73;;;4.13;;
39930;SDS011;26635;-35.248;149.138;2023-02-28T15:24:54;7.18;;;4.43;;
39930;SDS011;26635;-35.248;149.138;2023-02-28T15:27:33;7.18;;;4.38;;
39930;SDS011;26635;-35.248;149.138;2023-02-28T15:30:17;6.35;;;4.63;;
39930;SDS011;26635;-35.248;149.138;2023-02-28T15:36:11;6.68;;;4.07;;
39930;SDS011;26635;-35.248;149.138;2023-02-28T15:38:50;6.07;;;4.13;;
39930;SDS011;26635;-35.248;149.138;2023-02-28T15:41:40;6.40;;;3.92;;
39930;SDS011;26635;-35.248;149.138;2023-02-28T15:47:12;6.60;;;3.85;;
39930;SDS011;26635;-35.248;149.138;2023-02-28T15:49:58;6.55;;;4.10;;
39930;SDS011;26635;-35.248;149.138;2023-02-28T15:52:39;7.97;;;4.50;;
39930;SDS011;26635;-35.248;149.138;2023-02-28T15:57:56;9.10;;;4.68;;
39930;SDS011;26635;-35.248;149.138;2023-02-28T16:00:31;17.08;;;5.63;;
39930;SDS011;26635;-35.248;149.138;2023-02-28T16:03:26;7.07;;;3.72;;
39930;SDS011;26635;-35.248;149.138;2023-02-28T16:06:53;7.07;;;3.78;;
39930;SDS011;26635;-35.248;149.138;2023-02-28T16:09:11;7.82;;;3.40;;
39930;SDS011;26635;-35.248;149.138;2023-02-28T16:14:19;5.57;;;3.72;;
39930;SDS011;26635;-35.248;149.138;2023-02-28T16:17:07;7.00;;;4.75;;
39930;SDS011;26635;-35.248;149.138;2023-02-28T16:19:54;7.68;;;4.22;;
39930;SDS011;26635;-35.248;149.138;2023-02-28T16:22:25;7.13;;;4.65;;
39930;SDS011;26635;-35.248;149.138;2023-02-28T16:25:01;7.82;;;4.00;;
39930;SDS011;26635;-35.248;149.138;2023-02-28T16:27:35;9.13;;;4.88;;
39930;SDS011;26635;-35.248;149.138;2023-02-28T16:30:18;6.30;;;4.25;;
39930;SDS011;26635;-35.248;149.138;2023-02-28T16:32:52;7.90;;;4.53;;
39930;SDS011;26635;-35.248;149.138;2023-02-28T16:35:27;6.80;;;3.83;;
39930;SDS011;26635;-35.248;149.138;2023-02-28T16:38:00;6.95;;;5.43;;
39930;SDS011;26635;-35.248;149.138;2023-02-28T16:40:33;8.40;;;4.30;;
39930;SDS011;26635;-35.248;149.138;2023-02-28T16:43:09;5.70;;;3.90;;
39930;SDS011;26635;-35.248;149.138;2023-02-28T16:45:58;5.18;;;4.28;;
39930;SDS011;26635;-35.248;149.138;2023-02-28T16:48:32;7.30;;;4.32;;
39930;SDS011;26635;-35.248;149.138;2023-02-28T16:51:03;7.82;;;4.68;;
39930;SDS011;26635;-35.248;149.138;2023-02-28T16:53:36;5.47;;;4.38;;
39930;SDS011;26635;-35.248;149.138;2023-02-28T16:56:10;6.80;;;4.60;;
39930;SDS011;26635;-35.248;149.138;2023-02-28T16:58:49;5.30;;;4.03;;
39930;SDS011;26635;-35.248;149.138;2023-02-28T17:01:21;7.20;;;4.38;;
39930;SDS011;26635;-35.248;149.138;2023-02-28T17:03:54;8.35;;;4.45;;
39930;SDS011;26635;-35.248;149.138;2023-02-28T17:06:26;6.55;;;3.85;;
39930;SDS011;26635;-35.248;149.138;2023-02-28T17:08:58;7.15;;;4.18;;
39930;SDS011;26635;-35.248;149.138;2023-02-28T17:11:32;7.13;;;3.70;;
39930;SDS011;26635;-35.248;149.138;2023-02-28T17:14:03;6.72;;;4.55;;
39930;SDS011;26635;-35.248;149.138;2023-02-28T17:16:38;7.82;;;4.38;;
39930;SDS011;26635;-35.248;149.138;2023-02-28T17:19:13;7.05;;;4.78;;
39930;SDS011;26635;-35.248;149.138;2023-02-28T17:21:48;4.65;;;4.10;;
39930;SDS011;26635;-35.248;149.138;2023-02-28T17:24:20;6.07;;;4.00;;
39930;SDS011;26635;-35.248;149.138;2023-02-28T17:26:57;6.97;;;4.50;;
39930;SDS011;26635;-35.248;149.138;2023-02-28T17:29:31;5.15;;;4.10;;
39930;SDS011;26635;-35.248;149.138;2023-02-28T17:32:03;8.13;;;3.78;;
39930;SDS011;26635;-35.248;149.138;2023-02-28T17:34:43;7.28;;;3.95;;
39930;SDS011;26635;-35.248;149.138;2023-02-28T17:37:14;6.43;;;3.42;;